Brevik Bridge — VRHY7 — position and weather

sailwx.info

Track history (hours):
 
Tides and Currents Weather Stations Pressure Air Temp Water Temp Dewpoint Dewpoint Depression Visibility Wind Speed Wind Dir Waves Ship Positions

Brevik Bridge

Last reported at 2016-Feb-10 18:32 UTC. Time now 2016-Feb-12 07:50 UTC.
Position N 30°28' E 122°36'.

Length 268 m; draft 9.7 m.

Type: Cargo ship. MMSI: 477866200.

Date/timePositionNaut miles runAvg speedWind from/ knotsBaromVisibWave heightAir tempDewpointWater temp
2016-Feb-10 18:32N 30°28' E 122°36'12 5.8
2016-Feb-10 16:30N 30°25' E 122°49'2612.2
2016-Feb-10 14:23N 30°02' E 123°02'1214.3
2016-Feb-10 13:31N 29°50' E 122°59'45512.6
2016-Feb-09 01:30N 22°47' E 119°53'1516.3
2016-Feb-09 00:33N 22°35' E 119°43'  
2016-Feb-04 11:32N 01°16' E 104°12'1515.2
2016-Feb-04 10:33N 01°14' E 103°57'1010.4
2016-Feb-04 09:33N 01°14' E 103°47'2 2.3
2016-Feb-04 08:33N 01°17' E 103°46'0 0.0
2016-Feb-04 06:30N 01°17' E 103°46'0 0.0
2016-Feb-04 05:30N 01°17' E 103°46'0 0.0
2016-Feb-04 04:24N 01°17' E 103°46'0 0.0
2016-Feb-04 03:30N 01°17' E 103°46'0 0.0
2016-Feb-04 02:30N 01°17' E 103°46'0 0.0
2016-Feb-04 01:21N 01°17' E 103°46'0 0.0
2016-Feb-04 00:33N 01°17' E 103°46'0 0.0
2016-Feb-03 23:33N 01°17' E 103°46'0 0.0
2016-Feb-03 21:21N 01°17' E 103°46'0 0.0
2016-Feb-03 19:30N 01°17' E 103°46'0 0.0
2016-Feb-03 18:30N 01°17' E 103°46'1 1.4
2016-Feb-03 17:33N 01°17' E 103°45'10 8.7
2016-Feb-03 16:24N 01°13' E 103°36'  
Track history (hours):
 
Tides and Currents Weather Stations Pressure Air Temp Water Temp Dewpoint Dewpoint Depression Visibility Wind Speed Wind Dir Waves Ship Positions

Brevik Bridge

Last reported at 2016-Feb-10 18:32 UTC. Time now 2016-Feb-12 07:50 UTC.
Position N 30°28' E 122°36'.

Length 268 m; draft 9.7 m.

Type: Cargo ship. MMSI: 477866200.

Date/timePositionNaut miles runAvg speedWind from/ knotsBaromVisibWave heightAir tempDewpointWater temp
2016-Feb-10 18:32N 30°28' E 122°36'12 5.8
2016-Feb-10 16:30N 30°25' E 122°49'2612.2
2016-Feb-10 14:23N 30°02' E 123°02'1214.3
2016-Feb-10 13:31N 29°50' E 122°59'45512.6
2016-Feb-09 01:30N 22°47' E 119°53'1516.3
2016-Feb-09 00:33N 22°35' E 119°43'  
2016-Feb-04 11:32N 01°16' E 104°12'1515.2
2016-Feb-04 10:33N 01°14' E 103°57'1010.4
2016-Feb-04 09:33N 01°14' E 103°47'2 2.3
2016-Feb-04 08:33N 01°17' E 103°46'0 0.0
2016-Feb-04 06:30N 01°17' E 103°46'0 0.0
2016-Feb-04 05:30N 01°17' E 103°46'0 0.0
2016-Feb-04 04:24N 01°17' E 103°46'0 0.0
2016-Feb-04 03:30N 01°17' E 103°46'0 0.0
2016-Feb-04 02:30N 01°17' E 103°46'0 0.0
2016-Feb-04 01:21N 01°17' E 103°46'0 0.0
2016-Feb-04 00:33N 01°17' E 103°46'0 0.0
2016-Feb-03 23:33N 01°17' E 103°46'0 0.0
2016-Feb-03 21:21N 01°17' E 103°46'0 0.0
2016-Feb-03 19:30N 01°17' E 103°46'0 0.0
2016-Feb-03 18:30N 01°17' E 103°46'1 1.4
2016-Feb-03 17:33N 01°17' E 103°45'10 8.7
2016-Feb-03 16:24N 01°13' E 103°36'  

Dump ship's entire track history